Terminal Aerodrome Forecast
Issued by NWS

Home | Current Version | Previous Version | Text Only | Print | Product List | Glossary On
Versions: 1 2 3 4 5 6 7 8 9 10 11 12 13 14 15 16
090
FTUS43 KMQT 130527
TAFCMX
TAF
KCMX 130527Z 1306/1406 33014G23KT 1SM -SHSN BLSN BKN018
      TEMPO 1306/1310 3/4SM -SHSN BLSN BKN014
     FM131400 33013KT 1SM -SHSN OVC018
     FM131800 33011G17KT 1 1/2SM -SHSN OVC018
     FM132200 32007KT 2SM -SHSN BKN025
     FM140300 00000KT 4SM -SHSN BKN035
     FM140500 00000KT P6SM BKN040=

USA.gov is the U.S. government's official web portal to all federal, state and local government web resources and services.